Latest Coastal Weather Observations for Gunn Point

IDD60701

Issued at 10:11 am CST Monday 23 October 2017 (issued every 10 minutes, with the page automatically refreshed every 10 minutes)

About coastal observations | Map of coastal stations | Coastal observations for NT | Marine services | Other Formats
Station Details ID: 014023 Name: GUNN POINT Lat: -12.25 Lon: 131.04 Height: 25.0 m
Data from the previous 72 hours. | See also: Recent months for locations in Northern Territory
Date/Time
CST
Temp
°C
Wind Pressure Rain since
9am
mm
Weather Cloud Vis
km
Sea
Height
m
Swell
Dir  Spd
kts
Gust
kts
hPa Trend Height
m
Period
s
Dir
23/10:00am 31.0 CALM 0 2 1012.1 - 0.0 - - - - - - -
23/09:30am 30.1 CALM 0 2 1012.3 - 0.0 - - - - - - -
23/09:00am 29.6 SSW 2 4 1012.3 - 0.0 - - - - - - -
23/08:30am 29.3 ESE 2 3 1012.2 - 0.0 - - - - - - -
23/08:00am 27.5 ESE 1 3 1012.0 - 0.0 - - - - - - -
23/07:30am 26.9 ESE 2 5 1011.7 - 0.0 - - - - - - -
23/07:00am 26.1 E 2 3 1011.3 - 0.0 - - - - - - -
23/06:30am 25.7 E 2 4 1011.1 - 0.0 - - - - - - -
23/06:00am 25.6 ESE 1 2 1011.0 - 0.0 - - - - - - -
23/05:30am 25.9 CALM 0 0 1010.8 - 0.0 - - - - - - -
23/05:00am 25.9 E 2 3 1010.4 - 0.0 - - - - - - -
23/04:30am 25.7 CALM 0 1 1010.1 - 0.0 - - - - - - -
23/04:00am 25.4 CALM 0 0 1009.9 - 0.0 - - - - - - -
23/03:30am 25.5 CALM 0 0 1010.0 - 0.0 - - - - - - -
23/03:00am 25.8 CALM 0 0 1010.1 - 0.0 - - - - - - -
23/02:30am 26.2 CALM 0 0 1009.9 - 0.0 - - - - - - -
23/02:00am 27.0 CALM 0 0 1009.9 - 0.0 - - - - - - -
23/01:30am 28.1 W 2 6 1010.0 - 0.0 - - - - - - -
23/01:00am 28.2 WNW 3 5 1010.1 - 0.0 - - - - - - -
23/12:30am 28.3 WNW 3 7 1010.3 - 0.0 - - - - - - -
23/12:00am 28.1 WNW 2 4 1010.3 - 0.0 - - - - - - -
 
Date/Time
CST
Temp
°C
Wind Pressure Rain since
9am
mm
Weather Cloud Vis
km
Sea
Height
m
Swell
Dir  Spd
kts
Gust
kts
hPa Trend Height
m
Period
s
Dir
22/11:30pm 28.3 NW 2 5 1010.7 - 0.0 - - - - - - -
22/11:00pm 28.2 W 1 3 1011.0 - 0.0 - - - - - - -
22/10:30pm 28.4 NW 3 6 1011.0 - 0.0 - - - - - - -
22/10:00pm 28.7 NW 3 5 1011.0 - 0.0 - - - - - - -
22/09:30pm 28.7 NW 4 7 1010.8 - 0.0 - - - - - - -
22/09:00pm 28.6 NW 4 11 1010.4 - 0.0 - - - - - - -
22/08:30pm 28.7 NW 4 8 1010.2 - 0.0 - - - - - - -
22/08:00pm 28.1 CALM 0 0 1009.9 - 0.0 - - - - - - -
22/07:30pm 28.0 CALM 0 0 1009.5 - 0.0 - - - - - - -
22/07:00pm 28.6 NNE 3 5 1009.1 - 0.0 - - - - - - -
22/06:30pm 29.4 NNE 2 3 1008.9 - 0.0 - - - - - - -
22/06:00pm 30.1 NE 5 8 1008.5 - 0.0 - - - - - - -
22/05:30pm 30.8 N 5 9 1008.1 - 0.0 - - - - - - -
22/05:00pm 31.1 NNE 6 11 1008.2 - 0.0 - - - - - - -
22/04:30pm 31.3 NNE 6 9 1008.0 - 0.0 - - - - - - -
22/04:00pm 31.9 NE 6 9 1007.5 - 0.0 - - - - - - -
22/03:30pm 32.0 NE 6 8 1007.8 - 0.0 - - - - - - -
22/03:00pm 31.9 NE 5 9 1008.3 - 0.0 - - - - - - -
22/02:30pm 32.1 ENE 5 10 1008.5 - 0.0 - - - - - - -
22/02:00pm 32.0 CALM 0 3 1008.9 - 0.0 - - - - - - -
22/01:30pm 31.9 ESE 2 6 1009.5 - 0.0 - - - - - - -
22/01:00pm 31.7 NE 4 7 1010.2 - 0.0 - - - - - - -
22/12:30pm 31.3 NNE 5 8 1010.6 - 0.0 - - - - - - -
22/12:00pm 31.1 ENE 3 6 1011.3 - 0.0 - - - - - - -
22/11:30am 29.8 NNE 4 8 1011.2 - 0.0 - - - - - - -
22/11:00am 29.4 NNE 4 7 1011.9 - 0.0 - - - - - - -
22/10:30am 29.5 E 5 11 1012.1 - 0.0 - - - - - - -
22/10:00am 27.3 NE 3 5 1012.4 - 0.0 - - - - - - -
22/09:30am 25.8 NNE 3 6 1012.9 - 0.0 - - - - - - -
22/09:00am 25.6 NE 7 11 1012.4 - 17.0 - - - - - - -
22/08:30am 27.2 NE 8 17 1012.0 - 17.0 - - - - - - -
22/08:00am 27.7 ENE 2 3 1012.0 - 17.0 - - - - - - -
22/07:30am 27.3 CALM 0 2 1011.5 - 17.0 - - - - - - -
22/07:00am 26.1 CALM 0 0 1011.2 - 17.0 - - - - - - -
22/06:30am 25.9 NE 1 1 1011.0 - 17.0 - - - - - - -
22/06:00am 25.8 CALM 0 0 1010.6 - 17.0 - - - - - - -
22/05:30am 25.4 NE 1 2 1010.2 - 17.0 - - - - - - -
22/05:00am 25.2 CALM 0 1 1009.9 - 17.0 - - - - - - -
22/04:30am 25.4 NE 1 2 1009.6 - 17.0 - - - - - - -
22/04:00am 25.4 CALM 0 0 1009.5 - 17.0 - - - - - - -
22/03:30am 25.5 CALM 0 0 1009.3 - 17.0 - - - - - - -
22/03:00am 25.6 CALM 0 0 1009.2 - 17.0 - - - - - - -
22/02:30am 26.0 CALM 0 0 1009.4 - 17.0 - - - - - - -
22/02:00am 27.3 CALM 0 1 1009.7 - 17.0 - - - - - - -
22/01:30am 27.9 WSW 1 3 1009.6 - 17.0 - - - - - - -
22/01:00am 28.2 W 2 3 1009.9 - 17.0 - - - - - - -
22/12:30am 28.5 WSW 3 8 1010.2 - 17.0 - - - - - - -
22/12:00am 28.6 W 3 6 1010.6 - 17.0 - - - - - - -
 
Date/Time
CST
Temp
°C
Wind Pressure Rain since
9am
mm
Weather Cloud Vis
km
Sea
Height
m
Swell
Dir  Spd
kts
Gust
kts
hPa Trend Height
m
Period
s
Dir
21/11:30pm 28.7 W 4 6 1010.5 - 17.0 - - - - - - -
21/11:00pm 28.9 W 4 8 1010.7 - 17.0 - - - - - - -
21/10:30pm 28.9 W 5 9 1010.8 - 17.0 - - - - - - -
21/10:00pm 29.1 W 4 7 1010.8 - 17.0 - - - - - - -
21/09:30pm 29.1 W 4 9 1010.7 - 17.0 - - - - - - -
21/09:00pm 29.1 WSW 4 7 1010.4 - 17.0 - - - - - - -
21/08:30pm 29.0 W 4 7 1010.4 - 17.0 - - - - - - -
21/08:00pm 28.7 WSW 3 7 1010.1 - 17.0 - - - - - - -
21/07:30pm 26.5 CALM 0 0 1009.7 - 17.0 - - - - - - -
21/07:00pm 26.9 CALM 0 0 1009.5 - 17.0 - - - - - - -
21/06:30pm 29.0 CALM 0 0 1009.1 - 17.0 - - - - - - -
21/06:00pm 29.9 CALM 0 0 1008.9 - 17.0 - - - - - - -
21/05:30pm 30.9 N 2 3 1008.7 - 17.0 - - - - - - -
21/05:00pm 31.5 NNW 4 6 1008.9 - 17.0 - - - - - - -
21/04:30pm 31.9 NNE 3 5 1009.0 - 17.0 - - - - - - -
21/04:00pm 31.5 NNE 4 6 1009.1 - 17.0 - - - - - - -
21/03:30pm 31.9 NNE 4 7 1009.6 - 17.0 - - - - - - -
21/03:00pm 31.3 NNE 5 8 1009.9 - 17.0 - - - - - - -
21/02:30pm 30.8 NNE 4 8 1010.3 - 17.0 - - - - - - -
21/02:00pm 28.7 N 2 5 1010.8 - 17.0 - - - - - - -
21/01:30pm 28.8 N 4 7 1011.5 - 17.0 - - - - - - -
21/01:00pm 26.3 NNW 6 11 1012.0 - 16.8 - - - - - - -
21/12:30pm 29.9 W 4 8 1012.0 - 0.0 - - - - - - -
21/12:00pm 31.0 W 5 9 1012.5 - 0.0 - - - - - - -
21/11:30am 30.6 W 5 9 1012.8 - 0.0 - - - - - - -
21/11:00am 31.6 WNW 4 9 1013.1 - 0.0 - - - - - - -
21/10:30am 31.3 E 3 5 1013.3 - 0.0 - - - - - - -
21/10:00am 30.6 E 1 3 1013.5 - 0.0 - - - - - - -
21/09:30am 29.6 E 2 4 1013.5 - 0.0 - - - - - - -
21/09:00am 28.4 ESE 1 2 1013.5 - 6.6 - - - - - - -
21/08:30am 27.3 ESE 1 4 1013.3 - 6.6 - - - - - - -
21/08:00am 26.5 CALM 0 1 1013.1 - 6.6 - - - - - - -
21/07:30am 25.3 SE 2 3 1012.6 - 6.6 - - - - - - -
21/07:00am 24.4 CALM 0 1 1012.2 - 6.6 - - - - - - -
21/06:30am 23.9 SE 1 3 1011.7 - 6.6 - - - - - - -
21/06:00am 24.0 SE 2 3 1011.7 - 6.6 - - - - - - -
21/05:30am 24.1 CALM 0 0 1011.2 - 6.6 - - - - - - -
21/05:00am 24.4 E 1 2 1011.5 - 6.6 - - - - - - -
21/04:30am 24.6 ENE 1 2 1011.1 - 6.4 - - - - - - -
21/04:00am 24.8 ENE 1 3 1011.0 - 6.4 - - - - - - -
21/03:30am 25.1 NE 2 3 1010.8 - 6.4 - - - - - - -
21/03:00am 25.1 NE 2 4 1011.0 - 6.4 - - - - - - -
21/02:30am 25.4 E 1 2 1011.1 - 6.4 - - - - - - -
21/02:00am 25.1 NE 3 7 1011.4 - 6.4 - - - - - - -
21/01:30am 25.2 N 2 3 1011.5 - 6.4 - - - - - - -
21/01:00am 25.6 CALM 0 2 1011.9 - 6.4 - - - - - - -
21/12:30am 25.7 CALM 0 0 1012.0 - 6.4 - - - - - - -
21/12:00am 25.8 NW 2 3 1012.0 - 6.4 Recent precip. - - - - - -
 
Date/Time
CST
Temp
°C
Wind Pressure Rain since
9am
mm
Weather Cloud Vis
km
Sea
Height
m
Swell
Dir  Spd
kts
Gust
kts
hPa Trend Height
m
Period
s
Dir
20/11:30pm 25.9 NE 1 1 1012.5 - 6.4 - - - - - - -
20/11:00pm 25.9 CALM 0 0 1012.5 - 6.0 - - - - - - -
20/10:30pm 26.3 CALM 0 0 1012.5 - 5.2 - - - - - - -
20/10:00pm 26.0 N 2 4 1012.2 - 5.2 - - - - - - -
20/09:30pm 26.2 N 1 2 1012.4 - 5.2 - - - - - - -
20/09:00pm 28.6 NW 3 7 1012.1 - 2.2 - - - - - - -
20/08:30pm 28.8 WNW 4 7 1011.5 - 2.2 - - - - - - -
20/08:00pm 28.8 NW 5 10 1011.2 - 2.2 - - - - - - -
20/07:30pm 29.4 WNW 5 12 1010.4 - 2.2 - - - - - - -
20/07:00pm 29.1 NW 2 5 1009.7 - 2.2 - - - - - - -
20/06:30pm 29.9 WNW 2 3 1009.3 - 2.2 - - - - - - -
20/06:00pm 30.9 WNW 2 5 1009.0 - 2.2 - - - - - - -
20/05:30pm 30.5 WNW 3 5 1008.7 - 2.2 - - - - - - -
20/05:00pm 30.9 WNW 4 7 1008.6 - 2.2 - - - - - - -
20/04:30pm 30.8 WNW 4 8 1008.5 - 2.2 - - - - - - -
20/04:00pm 30.6 WNW 5 8 1008.8 - 2.2 - - - - - - -
20/03:30pm 30.7 W 5 8 1009.2 - 2.2 - - - - - - -
20/03:00pm 29.7 NW 2 5 1009.6 - 2.2 Recent precip. - - - - - -
20/02:30pm 28.8 S 2 5 1010.0 - 2.2 - - - - - - -
20/02:00pm 31.3 WNW 5 9 1010.1 - 0.0 - - - - - - -
20/01:30pm 32.5 WNW 6 10 1010.5 - 0.0 - - - - - - -
20/01:00pm 32.4 WNW 6 10 1011.0 - 0.0 - - - - - - -
20/12:30pm 32.2 WSW 5 10 1011.5 - 0.0 - - - - - - -
20/12:00pm 32.1 W 5 8 1011.8 - 0.0 - - - - - - -
20/11:30am 31.5 W 5 10 1012.1 - 0.0 - - - - - - -
20/11:00am 31.9 WNW 3 8 1012.4 - 0.0 - - - - - - -
20/10:30am 32.3 NNE 2 6 1012.8 - 0.0 - - - - - - -

Other Formats:

Comma delimited format used in spreadsheet applications
http://www.bom.gov.au/fwo/IDD60701/IDD60701.99501.axf

JavaScript Object Notation format (JSON) in row-major order
http://www.bom.gov.au/fwo/IDD60701/IDD60701.99501.json